sensor_id;sensor_type;location;lat;lon;timestamp;pressure;altitude;pressure_sealevel;temperature;humidity
13867;BME280;7003;46.982;15.248;2024-01-27T00:00:08;97942.72;;;6.15;79.65
13867;BME280;7003;46.982;15.248;2024-01-27T00:02:38;97943.59;;;6.05;83.61
13867;BME280;7003;46.982;15.248;2024-01-27T00:05:08;97950.03;;;5.94;83.63
13867;BME280;7003;46.982;15.248;2024-01-27T00:07:37;97960.72;;;5.69;86.86
13867;BME280;7003;46.982;15.248;2024-01-27T00:10:06;97957.53;;;5.67;82.96
13867;BME280;7003;46.982;15.248;2024-01-27T00:12:37;97965.69;;;5.75;76.23
13867;BME280;7003;46.982;15.248;2024-01-27T00:15:07;97966.47;;;5.76;76.90
13867;BME280;7003;46.982;15.248;2024-01-27T00:17:35;97966.81;;;5.59;79.60
13867;BME280;7003;46.982;15.248;2024-01-27T00:20:03;97968.00;;;5.82;71.50
13867;BME280;7003;46.982;15.248;2024-01-27T00:22:33;97974.44;;;5.66;71.18
13867;BME280;7003;46.982;15.248;2024-01-27T00:25:00;97987.81;;;5.85;68.02
13867;BME280;7003;46.982;15.248;2024-01-27T00:27:27;97986.00;;;5.80;71.27
13867;BME280;7003;46.982;15.248;2024-01-27T00:29:54;97989.44;;;5.75;71.71
13867;BME280;7003;46.982;15.248;2024-01-27T00:32:21;97995.03;;;5.69;77.50
13867;BME280;7003;46.982;15.248;2024-01-27T00:34:48;98005.88;;;5.62;84.08
13867;BME280;7003;46.982;15.248;2024-01-27T00:37:15;98005.44;;;5.45;87.21
13867;BME280;7003;46.982;15.248;2024-01-27T00:39:45;98013.97;;;5.17;96.77
13867;BME280;7003;46.982;15.248;2024-01-27T00:42:14;98019.81;;;4.98;100.00
13867;BME280;7003;46.982;15.248;2024-01-27T00:44:42;98034.34;;;4.76;100.00
13867;BME280;7003;46.982;15.248;2024-01-27T00:47:09;98037.53;;;4.52;100.00
13867;BME280;7003;46.982;15.248;2024-01-27T00:49:36;98038.06;;;4.54;100.00
13867;BME280;7003;46.982;15.248;2024-01-27T00:52:04;98042.78;;;4.32;100.00
13867;BME280;7003;46.982;15.248;2024-01-27T00:54:35;98034.09;;;4.77;78.34
13867;BME280;7003;46.982;15.248;2024-01-27T00:57:06;98036.19;;;4.95;96.77
13867;BME280;7003;46.982;15.248;2024-01-27T00:59:34;98059.63;;;4.97;100.00
13867;BME280;7003;46.982;15.248;2024-01-27T01:02:08;98052.56;;;4.47;100.00
13867;BME280;7003;46.982;15.248;2024-01-27T01:04:36;98054.38;;;4.16;100.00
13867;BME280;7003;46.982;15.248;2024-01-27T01:07:03;98053.28;;;4.02;100.00
13867;BME280;7003;46.982;15.248;2024-01-27T01:09:30;98060.09;;;4.03;100.00
13867;BME280;7003;46.982;15.248;2024-01-27T01:11:58;98056.94;;;3.96;100.00
13867;BME280;7003;46.982;15.248;2024-01-27T01:14:28;98060.56;;;3.69;100.00
13867;BME280;7003;46.982;15.248;2024-01-27T01:16:56;98052.38;;;3.61;100.00
13867;BME280;7003;46.982;15.248;2024-01-27T01:19:26;98058.78;;;3.85;100.00
13867;BME280;7003;46.982;15.248;2024-01-27T01:21:53;98062.50;;;3.32;100.00
13867;BME280;7003;46.982;15.248;2024-01-27T01:24:20;98063.09;;;2.97;100.00
13867;BME280;7003;46.982;15.248;2024-01-27T01:26:47;98067.63;;;2.69;100.00
13867;BME280;7003;46.982;15.248;2024-01-27T01:29:14;98059.84;;;2.85;100.00
13867;BME280;7003;46.982;15.248;2024-01-27T01:31:43;98056.69;;;2.83;100.00
13867;BME280;7003;46.982;15.248;2024-01-27T01:34:13;98057.28;;;2.58;100.00
13867;BME280;7003;46.982;15.248;2024-01-27T01:36:41;98058.25;;;2.47;100.00
13867;BME280;7003;46.982;15.248;2024-01-27T01:39:11;98066.00;;;2.31;100.00
13867;BME280;7003;46.982;15.248;2024-01-27T01:41:42;98060.94;;;2.25;100.00
13867;BME280;7003;46.982;15.248;2024-01-27T01:44:10;98067.38;;;2.39;100.00
13867;BME280;7003;46.982;15.248;2024-01-27T01:46:40;98067.78;;;2.58;100.00
13867;BME280;7003;46.982;15.248;2024-01-27T01:49:10;98062.59;;;3.00;100.00
13867;BME280;7003;46.982;15.248;2024-01-27T01:51:38;98055.75;;;2.99;100.00
13867;BME280;7003;46.982;15.248;2024-01-27T01:54:08;98062.34;;;3.01;100.00
13867;BME280;7003;46.982;15.248;2024-01-27T01:56:37;98066.16;;;2.84;100.00
13867;BME280;7003;46.982;15.248;2024-01-27T01:59:04;98070.13;;;3.33;82.63
13867;BME280;7003;46.982;15.248;2024-01-27T02:01:31;98060.28;;;3.66;74.22
13867;BME280;7003;46.982;15.248;2024-01-27T02:04:01;98063.81;;;4.12;65.40
13867;BME280;7003;46.982;15.248;2024-01-27T02:06:32;98054.13;;;4.53;59.58
13867;BME280;7003;46.982;15.248;2024-01-27T02:09:01;98063.59;;;4.84;57.05
13867;BME280;7003;46.982;15.248;2024-01-27T02:11:31;98070.41;;;5.06;56.16
13867;BME280;7003;46.982;15.248;2024-01-27T02:13:58;98071.47;;;5.04;55.77
13867;BME280;7003;46.982;15.248;2024-01-27T02:16:25;98073.63;;;4.72;57.69
13867;BME280;7003;46.982;15.248;2024-01-27T02:18:55;98074.41;;;4.93;55.85
13867;BME280;7003;46.982;15.248;2024-01-27T02:21:22;98080.44;;;5.19;51.85
13867;BME280;7003;46.982;15.248;2024-01-27T02:23:52;98081.53;;;4.87;55.64
13867;BME280;7003;46.982;15.248;2024-01-27T02:26:21;98079.16;;;4.86;53.49
13867;BME280;7003;46.982;15.248;2024-01-27T02:28:48;98074.16;;;4.69;54.43
13867;BME280;7003;46.982;15.248;2024-01-27T02:31:15;98072.50;;;5.29;49.45
13867;BME280;7003;46.982;15.248;2024-01-27T02:33:44;98066.13;;;5.40;50.67
13867;BME280;7003;46.982;15.248;2024-01-27T02:36:11;98060.34;;;5.38;48.22
13867;BME280;7003;46.982;15.248;2024-01-27T02:38:40;98059.66;;;5.76;46.55
13867;BME280;7003;46.982;15.248;2024-01-27T02:41:09;98052.34;;;5.63;47.74
13867;BME280;7003;46.982;15.248;2024-01-27T02:43:40;98056.34;;;6.10;44.22
13867;BME280;7003;46.982;15.248;2024-01-27T02:46:09;98055.81;;;6.08;45.05
13867;BME280;7003;46.982;15.248;2024-01-27T02:48:40;98060.41;;;5.92;46.37
13867;BME280;7003;46.982;15.248;2024-01-27T02:51:07;98064.06;;;5.96;44.53
13867;BME280;7003;46.982;15.248;2024-01-27T02:53:41;98076.03;;;5.78;46.89
13867;BME280;7003;46.982;15.248;2024-01-27T02:56:09;98067.34;;;5.68;46.87
13867;BME280;7003;46.982;15.248;2024-01-27T02:58:37;98068.09;;;5.73;46.48
13867;BME280;7003;46.982;15.248;2024-01-27T03:01:05;98074.94;;;5.90;44.06
13867;BME280;7003;46.982;15.248;2024-01-27T03:03:32;98073.63;;;5.82;45.67
13867;BME280;7003;46.982;15.248;2024-01-27T03:06:00;98080.25;;;5.74;44.29
13867;BME280;7003;46.982;15.248;2024-01-27T03:08:27;98080.03;;;5.61;45.98
13867;BME280;7003;46.982;15.248;2024-01-27T03:10:54;98068.25;;;5.38;46.88
13867;BME280;7003;46.982;15.248;2024-01-27T03:13:21;98071.19;;;5.26;46.89
13867;BME280;7003;46.982;15.248;2024-01-27T03:15:49;98076.03;;;5.78;44.82
13867;BME280;7003;46.982;15.248;2024-01-27T03:18:25;98071.03;;;5.72;44.26
13867;BME280;7003;46.982;15.248;2024-01-27T03:20:54;98070.28;;;5.61;44.75
13867;BME280;7003;46.982;15.248;2024-01-27T03:23:21;98064.03;;;5.37;45.91
13867;BME280;7003;46.982;15.248;2024-01-27T03:25:49;98059.28;;;5.29;49.11
13867;BME280;7003;46.982;15.248;2024-01-27T03:28:18;98067.25;;;5.14;48.89
13867;BME280;7003;46.982;15.248;2024-01-27T03:30:46;98067.81;;;4.75;49.60
13867;BME280;7003;46.982;15.248;2024-01-27T03:33:13;98067.31;;;4.63;50.85
13867;BME280;7003;46.982;15.248;2024-01-27T03:35:41;98085.22;;;4.56;50.77
13867;BME280;7003;46.982;15.248;2024-01-27T03:38:11;98079.41;;;4.39;51.74
13867;BME280;7003;46.982;15.248;2024-01-27T03:40:39;98080.97;;;4.35;51.40
13867;BME280;7003;46.982;15.248;2024-01-27T03:43:08;98098.88;;;4.22;52.34
13867;BME280;7003;46.982;15.248;2024-01-27T03:45:35;98102.81;;;4.15;51.20
13867;BME280;7003;46.982;15.248;2024-01-27T03:48:06;98109.88;;;4.04;53.75
13867;BME280;7003;46.982;15.248;2024-01-27T03:50:33;98110.16;;;4.08;53.57
13867;BME280;7003;46.982;15.248;2024-01-27T03:53:02;98102.19;;;3.87;54.96
13867;BME280;7003;46.982;15.248;2024-01-27T03:55:29;98123.53;;;3.91;54.40
13867;BME280;7003;46.982;15.248;2024-01-27T03:57:57;98124.75;;;3.68;61.44
13867;BME280;7003;46.982;15.248;2024-01-27T04:00:24;98116.63;;;3.75;60.77
13867;BME280;7003;46.982;15.248;2024-01-27T04:02:54;98121.31;;;3.68;60.16
13867;BME280;7003;46.982;15.248;2024-01-27T04:05:22;98116.31;;;3.66;59.61
13867;BME280;7003;46.982;15.248;2024-01-27T04:07:49;98116.88;;;3.26;65.95
13867;BME280;7003;46.982;15.248;2024-01-27T04:10:18;98118.44;;;3.17;64.35
13867;BME280;7003;46.982;15.248;2024-01-27T04:12:46;98117.44;;;2.91;67.12
13867;BME280;7003;46.982;15.248;2024-01-27T04:15:13;98108.56;;;3.39;59.19
13867;BME280;7003;46.982;15.248;2024-01-27T04:17:46;98104.94;;;4.28;53.42
13867;BME280;7003;46.982;15.248;2024-01-27T04:20:13;98108.31;;;4.08;55.28
13867;BME280;7003;46.982;15.248;2024-01-27T04:22:43;98103.84;;;4.14;55.22
13867;BME280;7003;46.982;15.248;2024-01-27T04:25:10;98101.75;;;4.21;53.63
13867;BME280;7003;46.982;15.248;2024-01-27T04:27:42;98109.69;;;4.31;54.25
13867;BME280;7003;46.982;15.248;2024-01-27T04:30:11;98109.16;;;4.34;52.78
13867;BME280;7003;46.982;15.248;2024-01-27T04:32:41;98111.03;;;4.99;49.88
13867;BME280;7003;46.982;15.248;2024-01-27T04:35:11;98108.41;;;4.74;50.95
13867;BME280;7003;46.982;15.248;2024-01-27T04:37:39;98112.63;;;4.75;51.07
13867;BME280;7003;46.982;15.248;2024-01-27T04:40:09;98128.97;;;4.62;52.69
13867;BME280;7003;46.982;15.248;2024-01-27T04:42:46;98122.63;;;4.48;54.73
13867;BME280;7003;46.982;15.248;2024-01-27T04:45:14;98131.56;;;4.37;54.68
13867;BME280;7003;46.982;15.248;2024-01-27T04:47:44;98136.78;;;4.16;55.92
13867;BME280;7003;46.982;15.248;2024-01-27T04:50:11;98148.81;;;3.92;56.26
13867;BME280;7003;46.982;15.248;2024-01-27T04:52:39;98146.19;;;3.97;54.98
13867;BME280;7003;46.982;15.248;2024-01-27T04:55:07;98139.69;;;4.20;53.99
13867;BME280;7003;46.982;15.248;2024-01-27T04:57:37;98160.50;;;4.21;53.11
13867;BME280;7003;46.982;15.248;2024-01-27T05:00:09;98152.59;;;4.16;53.47
13867;BME280;7003;46.982;15.248;2024-01-27T05:02:40;98158.41;;;4.23;53.13
13867;BME280;7003;46.982;15.248;2024-01-27T05:05:08;98163.66;;;4.34;52.79
13867;BME280;7003;46.982;15.248;2024-01-27T05:07:35;98163.41;;;4.30;54.23
13867;BME280;7003;46.982;15.248;2024-01-27T05:10:02;98148.41;;;4.36;52.60
13867;BME280;7003;46.982;15.248;2024-01-27T05:12:32;98147.97;;;4.79;50.02
13867;BME280;7003;46.982;15.248;2024-01-27T05:15:02;98162.97;;;4.79;51.47
13867;BME280;7003;46.982;15.248;2024-01-27T05:17:31;98161.63;;;4.66;51.02
13867;BME280;7003;46.982;15.248;2024-01-27T05:19:58;98173.47;;;4.58;50.93
13867;BME280;7003;46.982;15.248;2024-01-27T05:22:28;98180.31;;;4.39;51.94
13867;BME280;7003;46.982;15.248;2024-01-27T05:24:55;98179.09;;;5.02;48.67
13867;BME280;7003;46.982;15.248;2024-01-27T05:27:22;98197.53;;;4.87;52.46
13867;BME280;7003;46.982;15.248;2024-01-27T05:29:49;98197.22;;;4.74;50.28
13867;BME280;7003;46.982;15.248;2024-01-27T05:32:16;98194.06;;;4.77;50.96
13867;BME280;7003;46.982;15.248;2024-01-27T05:34:46;98210.41;;;4.63;63.33
13867;BME280;7003;46.982;15.248;2024-01-27T05:37:15;98227.59;;;4.09;62.67
13867;BME280;7003;46.982;15.248;2024-01-27T05:39:44;98230.81;;;3.74;62.60
13867;BME280;7003;46.982;15.248;2024-01-27T05:42:13;98223.78;;;3.90;55.06
13867;BME280;7003;46.982;15.248;2024-01-27T05:44:41;98223.25;;;4.45;50.31
13867;BME280;7003;46.982;15.248;2024-01-27T05:47:08;98233.50;;;4.36;52.44
13867;BME280;7003;46.982;15.248;2024-01-27T05:49:39;98239.28;;;3.81;64.17
13867;BME280;7003;46.982;15.248;2024-01-27T05:52:08;98243.03;;;3.48;65.22
13867;BME280;7003;46.982;15.248;2024-01-27T05:54:39;98240.44;;;3.21;67.68
13867;BME280;7003;46.982;15.248;2024-01-27T05:57:09;98254.69;;;2.50;90.34
13867;BME280;7003;46.982;15.248;2024-01-27T05:59:36;98255.56;;;2.12;90.15
13867;BME280;7003;46.982;15.248;2024-01-27T06:02:03;98252.97;;;1.95;88.68
13867;BME280;7003;46.982;15.248;2024-01-27T06:04:33;98268.19;;;1.93;79.92
13867;BME280;7003;46.982;15.248;2024-01-27T06:07:00;98273.22;;;2.38;72.47
13867;BME280;7003;46.982;15.248;2024-01-27T06:09:31;98270.47;;;2.50;68.70
13867;BME280;7003;46.982;15.248;2024-01-27T06:11:59;98278.69;;;2.58;72.57
13867;BME280;7003;46.982;15.248;2024-01-27T06:14:27;98278.16;;;2.35;69.48
13867;BME280;7003;46.982;15.248;2024-01-27T06:16:54;98284.59;;;2.05;87.13
13867;BME280;7003;46.982;15.248;2024-01-27T06:19:22;98296.25;;;1.92;94.59
13867;BME280;7003;46.982;15.248;2024-01-27T06:21:50;98291.25;;;1.58;98.94
13867;BME280;7003;46.982;15.248;2024-01-27T06:24:20;98280.44;;;3.55;57.57
13867;BME280;7003;46.982;15.248;2024-01-27T06:26:49;98289.94;;;3.02;72.10
13867;BME280;7003;46.982;15.248;2024-01-27T06:29:19;98294.41;;;2.31;87.89
13867;BME280;7003;46.982;15.248;2024-01-27T06:31:49;98287.81;;;2.29;74.67
13867;BME280;7003;46.982;15.248;2024-01-27T06:34:17;98293.38;;;3.30;60.65
13867;BME280;7003;46.982;15.248;2024-01-27T06:36:45;98296.34;;;2.41;76.17
13867;BME280;7003;46.982;15.248;2024-01-27T06:39:13;98306.94;;;2.46;75.78
13867;BME280;7003;46.982;15.248;2024-01-27T06:41:43;98308.06;;;2.33;76.21
13867;BME280;7003;46.982;15.248;2024-01-27T06:44:14;98312.31;;;2.18;75.19
13867;BME280;7003;46.982;15.248;2024-01-27T06:46:45;98317.28;;;2.14;75.79
13867;BME280;7003;46.982;15.248;2024-01-27T06:49:18;98324.22;;;2.04;76.70
13867;BME280;7003;46.982;15.248;2024-01-27T06:51:46;98318.53;;;2.12;74.68
13867;BME280;7003;46.982;15.248;2024-01-27T06:54:16;98336.25;;;2.38;71.06
13867;BME280;7003;46.982;15.248;2024-01-27T06:56:44;98333.47;;;2.28;78.03
13867;BME280;7003;46.982;15.248;2024-01-27T06:59:12;98339.25;;;2.47;71.99
13867;BME280;7003;46.982;15.248;2024-01-27T07:01:47;98320.16;;;2.56;70.52
13867;BME280;7003;46.982;15.248;2024-01-27T07:04:16;98327.16;;;3.16;62.39
13867;BME280;7003;46.982;15.248;2024-01-27T07:06:46;98328.78;;;3.22;65.71
13867;BME280;7003;46.982;15.248;2024-01-27T07:09:13;98333.06;;;2.80;70.11
13867;BME280;7003;46.982;15.248;2024-01-27T07:11:43;98333.53;;;3.52;60.75
13867;BME280;7003;46.982;15.248;2024-01-27T07:14:13;98335.38;;;3.52;64.36
13867;BME280;7003;46.982;15.248;2024-01-27T07:16:43;98340.38;;;3.53;65.20
13867;BME280;7003;46.982;15.248;2024-01-27T07:19:15;98333.09;;;3.65;67.25
13867;BME280;7003;46.982;15.248;2024-01-27T07:21:46;98334.16;;;3.64;69.12
13867;BME280;7003;46.982;15.248;2024-01-27T07:24:16;98335.47;;;3.62;66.48
13867;BME280;7003;46.982;15.248;2024-01-27T07:26:47;98347.56;;;3.95;61.41
13867;BME280;7003;46.982;15.248;2024-01-27T07:29:15;98354.69;;;3.99;63.17
13867;BME280;7003;46.982;15.248;2024-01-27T07:31:45;98361.41;;;4.17;64.01
13867;BME280;7003;46.982;15.248;2024-01-27T07:34:12;98363.75;;;3.23;78.09
13867;BME280;7003;46.982;15.248;2024-01-27T07:36:41;98362.00;;;3.33;74.76
13867;BME280;7003;46.982;15.248;2024-01-27T07:39:10;98368.31;;;3.59;69.57
13867;BME280;7003;46.982;15.248;2024-01-27T07:41:40;98370.84;;;3.76;65.26
13867;BME280;7003;46.982;15.248;2024-01-27T07:44:13;98378.97;;;4.11;65.41
13867;BME280;7003;46.982;15.248;2024-01-27T07:46:43;98381.22;;;4.30;63.86
13867;BME280;7003;46.982;15.248;2024-01-27T07:49:11;98384.97;;;4.39;65.98
13867;BME280;7003;46.982;15.248;2024-01-27T07:51:47;98385.59;;;4.56;68.22
13867;BME280;7003;46.982;15.248;2024-01-27T07:54:17;98374.75;;;4.47;71.17
13867;BME280;7003;46.982;15.248;2024-01-27T07:56:47;98390.38;;;4.17;71.03
13867;BME280;7003;46.982;15.248;2024-01-27T07:59:17;98390.31;;;3.80;75.79
13867;BME280;7003;46.982;15.248;2024-01-27T08:01:45;98381.91;;;4.10;75.12
13867;BME280;7003;46.982;15.248;2024-01-27T08:04:13;98398.22;;;4.49;68.97
13867;BME280;7003;46.982;15.248;2024-01-27T08:06:49;98404.94;;;4.35;75.98
13867;BME280;7003;46.982;15.248;2024-01-27T08:09:18;98394.06;;;4.63;65.15
13867;BME280;7003;46.982;15.248;2024-01-27T08:11:47;98408.44;;;4.87;64.71
13867;BME280;7003;46.982;15.248;2024-01-27T08:14:18;98403.31;;;5.33;60.87
13867;BME280;7003;46.982;15.248;2024-01-27T08:16:46;98410.72;;;5.51;58.00
13867;BME280;7003;46.982;15.248;2024-01-27T08:19:16;98408.44;;;6.00;53.42
13867;BME280;7003;46.982;15.248;2024-01-27T08:21:50;98401.56;;;6.35;54.87
13867;BME280;7003;46.982;15.248;2024-01-27T08:24:17;98407.00;;;6.74;53.33
13867;BME280;7003;46.982;15.248;2024-01-27T08:26:45;98403.16;;;7.15;55.69
13867;BME280;7003;46.982;15.248;2024-01-27T08:29:14;98402.06;;;7.26;57.13
13867;BME280;7003;46.982;15.248;2024-01-27T08:31:41;98407.19;;;7.57;52.77
13867;BME280;7003;46.982;15.248;2024-01-27T08:34:09;98413.47;;;8.05;51.51
13867;BME280;7003;46.982;15.248;2024-01-27T08:36:40;98410.63;;;7.91;45.89
13867;BME280;7003;46.982;15.248;2024-01-27T08:39:12;98405.81;;;7.98;46.49
13867;BME280;7003;46.982;15.248;2024-01-27T08:41:40;98409.78;;;8.30;44.80
13867;BME280;7003;46.982;15.248;2024-01-27T08:44:07;98417.56;;;8.79;46.08
13867;BME280;7003;46.982;15.248;2024-01-27T08:46:34;98429.94;;;8.88;45.49
13867;BME280;7003;46.982;15.248;2024-01-27T08:49:01;98440.03;;;9.10;44.67
13867;BME280;7003;46.982;15.248;2024-01-27T08:51:29;98433.88;;;8.91;41.32
13867;BME280;7003;46.982;15.248;2024-01-27T08:53:58;98439.78;;;9.31;42.33
13867;BME280;7003;46.982;15.248;2024-01-27T08:56:30;98435.25;;;9.31;40.44
13867;BME280;7003;46.982;15.248;2024-01-27T08:58:57;98433.13;;;9.71;41.34
13867;BME280;7003;46.982;15.248;2024-01-27T09:01:25;98428.88;;;9.13;38.76
13867;BME280;7003;46.982;15.248;2024-01-27T09:03:56;98427.66;;;9.01;39.42
13867;BME280;7003;46.982;15.248;2024-01-27T09:06:23;98429.16;;;9.12;39.92
13867;BME280;7003;46.982;15.248;2024-01-27T09:08:51;98441.69;;;8.82;39.38
13867;BME280;7003;46.982;15.248;2024-01-27T09:11:20;98431.09;;;9.25;39.92
13867;BME280;7003;46.982;15.248;2024-01-27T09:13:50;98433.50;;;9.83;38.38
13867;BME280;7003;46.982;15.248;2024-01-27T09:16:19;98447.03;;;10.37;39.83
13867;BME280;7003;46.982;15.248;2024-01-27T09:18:47;98461.06;;;10.24;37.23
13867;BME280;7003;46.982;15.248;2024-01-27T09:21:19;98450.25;;;10.67;36.48
13867;BME280;7003;46.982;15.248;2024-01-27T09:23:53;98461.47;;;10.64;35.50
13867;BME280;7003;46.982;15.248;2024-01-27T09:26:23;98463.41;;;11.04;34.15
13867;BME280;7003;46.982;15.248;2024-01-27T09:28:54;98462.44;;;10.54;32.84
13867;BME280;7003;46.982;15.248;2024-01-27T09:31:24;98461.50;;;10.77;34.11
13867;BME280;7003;46.982;15.248;2024-01-27T09:33:52;98473.56;;;10.24;34.88
13867;BME280;7003;46.982;15.248;2024-01-27T09:36:20;98467.53;;;10.18;33.56
13867;BME280;7003;46.982;15.248;2024-01-27T09:38:50;98462.13;;;10.23;33.05
13867;BME280;7003;46.982;15.248;2024-01-27T09:41:20;98457.22;;;9.98;34.65
13867;BME280;7003;46.982;15.248;2024-01-27T09:43:48;98457.63;;;10.05;33.22
13867;BME280;7003;46.982;15.248;2024-01-27T09:46:19;98467.53;;;10.18;32.99
13867;BME280;7003;46.982;15.248;2024-01-27T09:48:46;98469.63;;;10.21;33.86
13867;BME280;7003;46.982;15.248;2024-01-27T09:51:16;98463.59;;;10.48;34.38
13867;BME280;7003;46.982;15.248;2024-01-27T09:53:44;98477.59;;;10.54;34.49
13867;BME280;7003;46.982;15.248;2024-01-27T09:56:14;98461.41;;;10.36;32.73
13867;BME280;7003;46.982;15.248;2024-01-27T09:58:44;98487.00;;;10.32;34.30
13867;BME280;7003;46.982;15.248;2024-01-27T10:01:12;98467.75;;;10.54;31.54
13867;BME280;7003;46.982;15.248;2024-01-27T10:03:42;98467.03;;;10.35;32.50
13867;BME280;7003;46.982;15.248;2024-01-27T10:06:10;98468.72;;;10.45;32.45
13867;BME280;7003;46.982;15.248;2024-01-27T10:08:38;98471.25;;;10.68;32.84
13867;BME280;7003;46.982;15.248;2024-01-27T10:11:07;98463.16;;;10.27;31.35
13867;BME280;7003;46.982;15.248;2024-01-27T10:13:35;98467.34;;;10.47;33.34
13867;BME280;7003;46.982;15.248;2024-01-27T10:16:03;98464.66;;;10.93;30.95
13867;BME280;7003;46.982;15.248;2024-01-27T10:18:31;98469.34;;;10.69;31.25
13867;BME280;7003;46.982;15.248;2024-01-27T10:21:13;98465.97;;;10.96;29.90
13867;BME280;7003;46.982;15.248;2024-01-27T10:23:41;98470.19;;;10.83;30.50
13867;BME280;7003;46.982;15.248;2024-01-27T10:26:09;98475.81;;;11.09;30.86
13867;BME280;7003;46.982;15.248;2024-01-27T10:28:36;98473.25;;;11.17;31.45
13867;BME280;7003;46.982;15.248;2024-01-27T10:31:10;98487.03;;;10.78;31.90
13867;BME280;7003;46.982;15.248;2024-01-27T10:33:51;98477.81;;;10.57;30.07
13867;BME280;7003;46.982;15.248;2024-01-27T10:36:23;98482.03;;;10.45;28.97
13867;BME280;7003;46.982;15.248;2024-01-27T10:38:52;98480.91;;;10.78;30.15
13867;BME280;7003;46.982;15.248;2024-01-27T10:41:22;98479.31;;;10.77;29.86
13867;BME280;7003;46.982;15.248;2024-01-27T10:43:51;98479.53;;;10.67;28.45
13867;BME280;7003;46.982;15.248;2024-01-27T10:46:21;98478.47;;;10.95;29.19
13867;BME280;7003;46.982;15.248;2024-01-27T10:48:50;98479.16;;;11.42;29.00
13867;BME280;7003;46.982;15.248;2024-01-27T10:51:28;98461.72;;;11.08;28.40
13867;BME280;7003;46.982;15.248;2024-01-27T10:54:01;98471.19;;;11.14;30.08
13867;BME280;7003;46.982;15.248;2024-01-27T10:56:32;98467.81;;;10.82;29.24
13867;BME280;7003;46.982;15.248;2024-01-27T10:59:04;98472.06;;;11.37;27.73
13867;BME280;7003;46.982;15.248;2024-01-27T11:01:32;98476.81;;;11.13;29.59
13867;BME280;7003;46.982;15.248;2024-01-27T11:04:02;98475.53;;;11.38;28.64
13867;BME280;7003;46.982;15.248;2024-01-27T11:06:34;98468.06;;;11.62;28.52
13867;BME280;7003;46.982;15.248;2024-01-27T11:09:03;98467.06;;;11.85;28.47
13867;BME280;7003;46.982;15.248;2024-01-27T11:11:34;98469.13;;;11.88;27.44
13867;BME280;7003;46.982;15.248;2024-01-27T11:14:02;98467.47;;;12.59;28.61
13867;BME280;7003;46.982;15.248;2024-01-27T11:16:29;98462.75;;;12.12;28.41
13867;BME280;7003;46.982;15.248;2024-01-27T11:19:00;98468.28;;;12.99;26.61
13867;BME280;7003;46.982;15.248;2024-01-27T11:21:30;98457.09;;;12.36;26.99
13867;BME280;7003;46.982;15.248;2024-01-27T11:24:12;98464.88;;;12.77;28.51
13867;BME280;7003;46.982;15.248;2024-01-27T11:26:40;98472.53;;;12.39;26.53
13867;BME280;7003;46.982;15.248;2024-01-27T11:29:10;98462.72;;;11.89;27.21
13867;BME280;7003;46.982;15.248;2024-01-27T11:31:48;98474.97;;;11.90;27.13
13867;BME280;7003;46.982;15.248;2024-01-27T11:34:17;98473.13;;;11.64;28.16
13867;BME280;7003;46.982;15.248;2024-01-27T11:36:45;98472.16;;;11.46;27.73
13867;BME280;7003;46.982;15.248;2024-01-27T11:39:27;98462.63;;;12.17;28.09
13867;BME280;7003;46.982;15.248;2024-01-27T11:42:07;98468.44;;;12.41;27.62
13867;BME280;7003;46.982;15.248;2024-01-27T11:44:38;98470.25;;;11.74;26.84
13867;BME280;7003;46.982;15.248;2024-01-27T11:47:14;98469.28;;;12.50;27.79
13867;BME280;7003;46.982;15.248;2024-01-27T11:49:50;98479.09;;;12.94;26.62
13867;BME280;7003;46.982;15.248;2024-01-27T11:52:19;98485.31;;;12.28;26.08
13867;BME280;7003;46.982;15.248;2024-01-27T11:54:53;98489.56;;;12.29;27.54
13867;BME280;7003;46.982;15.248;2024-01-27T11:57:23;98488.47;;;12.52;25.75
13867;BME280;7003;46.982;15.248;2024-01-27T11:59:53;98487.53;;;12.57;27.76
13867;BME280;7003;46.982;15.248;2024-01-27T12:02:21;98484.19;;;11.84;26.92
13867;BME280;7003;46.982;15.248;2024-01-27T12:04:49;98485.69;;;11.77;26.44
13867;BME280;7003;46.982;15.248;2024-01-27T12:07:17;98480.69;;;12.20;26.77
13867;BME280;7003;46.982;15.248;2024-01-27T12:09:45;98482.84;;;12.85;26.38
13867;BME280;7003;46.982;15.248;2024-01-27T12:12:17;98466.47;;;11.88;27.13
13867;BME280;7003;46.982;15.248;2024-01-27T12:14:48;98475.09;;;11.58;26.67
13867;BME280;7003;46.982;15.248;2024-01-27T12:17:16;98473.50;;;11.84;26.75
13867;BME280;7003;46.982;15.248;2024-01-27T12:19:46;98471.78;;;12.24;26.43
13867;BME280;7003;46.982;15.248;2024-01-27T12:22:23;98471.56;;;12.65;26.44
13867;BME280;7003;46.982;15.248;2024-01-27T12:24:54;98469.72;;;11.99;26.49
13867;BME280;7003;46.982;15.248;2024-01-27T12:27:25;98470.44;;;12.13;26.98
13867;BME280;7003;46.982;15.248;2024-01-27T12:29:56;98472.84;;;12.23;26.10
13867;BME280;7003;46.982;15.248;2024-01-27T12:32:27;98476.06;;;12.34;25.41
13867;BME280;7003;46.982;15.248;2024-01-27T12:34:54;98470.75;;;12.12;26.95
13867;BME280;7003;46.982;15.248;2024-01-27T12:37:25;98487.53;;;12.57;25.55
13867;BME280;7003;46.982;15.248;2024-01-27T12:39:52;98476.88;;;12.34;26.00
13867;BME280;7003;46.982;15.248;2024-01-27T12:42:22;98482.19;;;11.63;26.48
13867;BME280;7003;46.982;15.248;2024-01-27T12:44:51;98472.22;;;11.68;26.39
13867;BME280;7003;46.982;15.248;2024-01-27T12:47:19;98472.94;;;11.46;26.88
13867;BME280;7003;46.982;15.248;2024-01-27T12:49:47;98475.63;;;11.33;25.65
13867;BME280;7003;46.982;15.248;2024-01-27T12:52:17;98468.31;;;11.11;27.75
13867;BME280;7003;46.982;15.248;2024-01-27T12:54:47;98466.94;;;11.00;25.89
13867;BME280;7003;46.982;15.248;2024-01-27T12:57:14;98479.28;;;11.37;26.80
13867;BME280;7003;46.982;15.248;2024-01-27T12:59:43;98477.78;;;12.08;27.71
13867;BME280;7003;46.982;15.248;2024-01-27T13:02:12;98479.44;;;11.81;26.95
13867;BME280;7003;46.982;15.248;2024-01-27T13:04:41;98482.78;;;12.09;26.38
13867;BME280;7003;46.982;15.248;2024-01-27T13:07:11;98480.31;;;11.63;26.08
13867;BME280;7003;46.982;15.248;2024-01-27T13:09:40;98470.38;;;11.41;26.73
13867;BME280;7003;46.982;15.248;2024-01-27T13:12:07;98479.88;;;11.06;26.00
13867;BME280;7003;46.982;15.248;2024-01-27T13:14:38;98485.66;;;10.81;26.41
13867;BME280;7003;46.982;15.248;2024-01-27T13:17:05;98483.91;;;10.90;26.91